createdAt,value
2017-08-27T00:00:16.670Z,0
2017-08-27T00:01:16.984Z,0
2017-08-27T00:02:16.664Z,0
2017-08-27T00:03:17.284Z,0
2017-08-27T00:04:16.027Z,0
2017-08-27T00:05:16.971Z,0
2017-08-27T00:06:16.963Z,0
2017-08-27T00:07:16.965Z,0
2017-08-27T00:08:16.670Z,0
2017-08-27T00:09:16.751Z,0
2017-08-27T00:10:16.642Z,0
2017-08-27T00:11:17.053Z,0
2017-08-27T00:12:16.641Z,0
2017-08-27T00:13:16.633Z,0
2017-08-27T00:14:16.950Z,0
2017-08-27T00:15:16.317Z,0
2017-08-27T00:16:16.947Z,0
2017-08-27T00:17:16.624Z,0
2017-08-27T00:18:17.259Z,0
2017-08-27T00:19:16.629Z,0
2017-08-27T00:20:16.940Z,0
2017-08-27T00:21:16.935Z,0
2017-08-27T00:22:16.928Z,0
2017-08-27T00:23:16.931Z,0
2017-08-27T00:24:16.618Z,0
2017-08-27T00:25:16.407Z,0
2017-08-27T00:26:16.922Z,0
2017-08-27T00:27:16.602Z,0
2017-08-27T00:28:16.917Z,0
2017-08-27T00:29:16.598Z,0
2017-08-27T00:30:16.696Z,0
2017-08-27T00:31:16.910Z,0
2017-08-27T00:32:16.281Z,0
2017-08-27T00:33:17.224Z,0
2017-08-27T00:34:16.898Z,0
2017-08-27T00:35:16.999Z,0
2017-08-27T00:36:16.581Z,0
2017-08-27T00:37:16.580Z,0
2017-08-27T00:38:17.211Z,0
2017-08-27T00:39:16.049Z,0
2017-08-27T00:40:17.211Z,0
2017-08-27T00:41:16.991Z,0
2017-08-27T00:42:16.887Z,0
2017-08-27T00:43:16.876Z,0
2017-08-27T00:44:16.565Z,0
2017-08-27T00:45:16.565Z,0
2017-08-27T00:46:16.558Z,0
2017-08-27T00:47:16.897Z,0
2017-08-27T00:48:16.245Z,0
2017-08-27T00:49:16.571Z,0
2017-08-27T00:50:16.858Z,0
2017-08-27T00:51:17.173Z,0
2017-08-27T00:52:16.547Z,0
2017-08-27T00:53:16.542Z,0
2017-08-27T00:54:16.542Z,0
2017-08-27T00:55:16.846Z,0
2017-08-27T00:56:16.649Z,0
2017-08-27T00:57:16.218Z,0
2017-08-27T00:58:17.155Z,0
2017-08-27T00:59:16.218Z,0
2017-08-27T01:00:16.215Z,0
2017-08-27T01:01:16.205Z,0
2017-08-27T01:02:15.993Z,0
2017-08-27T01:03:16.834Z,0
2017-08-27T01:04:16.198Z,0
2017-08-27T01:05:16.300Z,0
2017-08-27T01:06:16.511Z,0
2017-08-27T01:07:16.507Z,0
2017-08-27T01:08:16.194Z,0
2017-08-27T01:09:16.186Z,0
2017-08-27T01:10:16.508Z,0
2017-08-27T01:11:16.501Z,0
2017-08-27T01:12:16.803Z,0
2017-08-27T01:13:16.599Z,0
2017-08-27T01:14:16.590Z,0
2017-08-27T01:15:16.171Z,0
2017-08-27T01:16:17.109Z,0
2017-08-27T01:17:16.184Z,0
2017-08-27T01:18:16.475Z,0
2017-08-27T01:19:16.794Z,0
2017-08-27T01:20:17.104Z,0
2017-08-27T01:21:16.471Z,0
2017-08-27T01:22:16.473Z,0
2017-08-27T01:23:16.160Z,0
2017-08-27T01:24:16.784Z,0
2017-08-27T01:25:16.468Z,0
2017-08-27T01:26:16.464Z,0
2017-08-27T01:27:16.774Z,0
2017-08-27T01:28:16.554Z,0
2017-08-27T01:29:16.769Z,0
2017-08-27T01:30:17.078Z,0
2017-08-27T01:31:16.762Z,0
2017-08-27T01:32:16.461Z,0
2017-08-27T01:33:16.441Z,0
2017-08-27T01:34:16.544Z,0
2017-08-27T01:35:17.070Z,0
2017-08-27T01:36:17.168Z,0
2017-08-27T01:37:16.439Z,0
2017-08-27T01:38:16.756Z,0
2017-08-27T01:39:16.745Z,0
2017-08-27T01:40:16.121Z,0
2017-08-27T01:41:16.768Z,0
2017-08-27T01:42:16.203Z,0
2017-08-27T01:43:16.746Z,0
2017-08-27T01:44:16.102Z,0
2017-08-27T01:45:16.097Z,0
2017-08-27T01:46:16.723Z,0
2017-08-27T01:47:16.198Z,0
2017-08-27T01:48:16.716Z,0
2017-08-27T01:49:17.040Z,0
2017-08-27T01:50:16.090Z,0
2017-08-27T01:51:16.403Z,0
2017-08-27T01:52:16.500Z,0
2017-08-27T01:53:16.396Z,0
2017-08-27T01:54:16.388Z,0
2017-08-27T01:55:16.700Z,0
2017-08-27T01:56:17.024Z,0
2017-08-27T01:57:16.072Z,0
2017-08-27T01:58:16.589Z,0
2017-08-27T01:59:16.397Z,0
2017-08-27T02:00:17.006Z,0
2017-08-27T02:01:16.474Z,0
2017-08-27T02:02:15.746Z,0
2017-08-27T02:03:17.096Z,0
2017-08-27T02:04:16.051Z,0
2017-08-27T02:05:16.681Z,0
2017-08-27T02:06:16.050Z,0
2017-08-27T02:07:16.050Z,0
2017-08-27T02:08:16.668Z,0
2017-08-27T02:09:16.685Z,0
2017-08-27T02:10:16.685Z,0
2017-08-27T02:11:16.978Z,0
2017-08-27T02:12:16.446Z,0
2017-08-27T02:13:16.662Z,0
2017-08-27T02:14:16.027Z,0
2017-08-27T02:15:16.970Z,0
2017-08-27T02:16:16.021Z,0
2017-08-27T02:17:16.642Z,0
2017-08-27T02:18:16.968Z,0
2017-08-27T02:19:16.960Z,0
2017-08-27T02:20:16.643Z,0
2017-08-27T02:21:16.630Z,0
2017-08-27T02:22:16.758Z,0
2017-08-27T02:23:16.636Z,0
2017-08-27T02:24:16.105Z,0
2017-08-27T02:25:16.635Z,0
2017-08-27T02:26:16.322Z,0
2017-08-27T02:27:16.626Z,0
2017-08-27T02:28:16.940Z,0
2017-08-27T02:29:16.613Z,0
2017-08-27T02:30:16.613Z,0
2017-08-27T02:31:16.620Z,0
2017-08-27T02:32:15.996Z,0
2017-08-27T02:33:17.022Z,0
2017-08-27T02:34:16.609Z,0
2017-08-27T02:35:17.019Z,0
2017-08-27T02:36:15.967Z,0
2017-08-27T02:37:16.928Z,0
2017-08-27T02:38:16.599Z,0
2017-08-27T02:39:16.600Z,0
2017-08-27T02:40:16.690Z,0
2017-08-27T02:41:16.277Z,0
2017-08-27T02:42:16.267Z,0
2017-08-27T02:43:16.585Z,0
2017-08-27T02:44:16.266Z,0
2017-08-27T02:45:16.578Z,0
2017-08-27T02:46:16.681Z,0
2017-08-27T02:47:16.254Z,0
2017-08-27T02:48:16.255Z,0
2017-08-27T02:49:16.585Z,0
2017-08-27T02:50:15.933Z,0
2017-08-27T02:51:15.936Z,0
2017-08-27T02:52:16.565Z,0
2017-08-27T02:53:16.559Z,0
2017-08-27T02:54:16.023Z,0
2017-08-27T02:55:15.921Z,0
2017-08-27T02:56:16.864Z,0
2017-08-27T02:57:16.544Z,0
2017-08-27T02:58:15.915Z,0
2017-08-27T02:59:16.540Z,0
2017-08-27T03:00:16.850Z,0
2017-08-27T03:01:15.591Z,0
2017-08-27T03:02:15.587Z,0
2017-08-27T03:03:15.902Z,0
2017-08-27T03:04:16.836Z,0
2017-08-27T03:05:15.581Z,0
2017-08-27T03:06:15.989Z,0
2017-08-27T03:07:16.202Z,0
2017-08-27T03:08:16.219Z,0
2017-08-27T03:09:16.824Z,0
2017-08-27T03:10:16.199Z,0
2017-08-27T03:11:16.195Z,0
2017-08-27T03:12:16.189Z,0
2017-08-27T03:13:16.502Z,0
2017-08-27T03:14:16.186Z,0
2017-08-27T03:15:16.182Z,0
2017-08-27T03:16:16.177Z,0
2017-08-27T03:17:16.807Z,0
2017-08-27T03:18:16.503Z,0
2017-08-27T03:19:16.170Z,0
2017-08-27T03:20:16.487Z,0
2017-08-27T03:21:16.794Z,0
2017-08-27T03:22:16.160Z,0
2017-08-27T03:23:16.474Z,0
2017-08-27T03:24:16.158Z,0
2017-08-27T03:25:16.152Z,0
2017-08-27T03:26:16.469Z,0
2017-08-27T03:27:16.154Z,0
2017-08-27T03:28:15.850Z,0
2017-08-27T03:29:16.146Z,0
2017-08-27T03:30:16.157Z,0
2017-08-27T03:31:16.460Z,0
2017-08-27T03:32:16.558Z,0
2017-08-27T03:33:16.136Z,0
2017-08-27T03:34:16.547Z,0
2017-08-27T03:35:16.237Z,0
2017-08-27T03:36:16.121Z,0
2017-08-27T03:37:16.443Z,0
2017-08-27T03:38:16.536Z,0
2017-08-27T03:39:16.433Z,0
2017-08-27T03:40:16.216Z,0
2017-08-27T03:41:15.809Z,0
2017-08-27T03:42:16.419Z,0
2017-08-27T03:43:16.421Z,0
2017-08-27T03:44:15.788Z,0
2017-08-27T03:45:16.101Z,0
2017-08-27T03:46:16.102Z,0
2017-08-27T03:47:16.102Z,0
2017-08-27T03:48:16.098Z,0
2017-08-27T03:49:16.407Z,0
2017-08-27T03:50:16.832Z,0
2017-08-27T03:51:16.713Z,0
2017-08-27T03:52:16.397Z,0
2017-08-27T03:53:16.082Z,0
2017-08-27T03:54:16.074Z,0
2017-08-27T03:55:15.760Z,0
2017-08-27T03:56:16.187Z,0
2017-08-27T03:57:16.071Z,0
2017-08-27T03:58:15.754Z,0
2017-08-27T03:59:16.689Z,0
2017-08-27T04:00:15.749Z,0
2017-08-27T04:01:15.742Z,0
2017-08-27T04:02:15.842Z,0
2017-08-27T04:03:15.737Z,0
2017-08-27T04:04:16.680Z,0
2017-08-27T04:05:16.361Z,0
2017-08-27T04:06:16.046Z,0
2017-08-27T04:07:16.358Z,0
2017-08-27T04:08:16.042Z,0
2017-08-27T04:09:16.352Z,0
2017-08-27T04:10:16.056Z,0
2017-08-27T04:11:15.722Z,0
2017-08-27T04:12:16.339Z,0
2017-08-27T04:13:15.714Z,0
2017-08-27T04:14:16.654Z,0
2017-08-27T04:15:15.707Z,0
2017-08-27T04:16:15.704Z,0
2017-08-27T04:17:16.326Z,0
2017-08-27T04:18:16.326Z,0
2017-08-27T04:19:16.332Z,0
2017-08-27T04:20:15.689Z,0
2017-08-27T04:21:16.320Z,0
2017-08-27T04:22:16.316Z,0
2017-08-27T04:23:15.681Z,0
2017-08-27T04:24:16.104Z,0
2017-08-27T04:25:15.567Z,0
2017-08-27T04:26:15.689Z,0
2017-08-27T04:27:16.301Z,0
2017-08-27T04:28:15.992Z,0
2017-08-27T04:29:16.084Z,0
2017-08-27T04:30:16.710Z,0
2017-08-27T04:31:16.075Z,0
2017-08-27T04:32:16.283Z,0
2017-08-27T04:33:16.608Z,0
2017-08-27T04:34:16.590Z,0
2017-08-27T04:35:16.378Z,0
2017-08-27T04:36:16.284Z,0
2017-08-27T04:37:15.960Z,0
2017-08-27T04:38:16.272Z,0
2017-08-27T04:39:15.956Z,0
2017-08-27T04:40:15.637Z,0
2017-08-27T04:41:15.963Z,0
2017-08-27T04:42:16.357Z,0
2017-08-27T04:43:16.261Z,0
2017-08-27T04:44:15.939Z,5
2017-08-27T04:45:16.254Z,5
2017-08-27T04:46:15.943Z,5
2017-08-27T04:47:16.029Z,5
2017-08-27T04:48:16.243Z,5
2017-08-27T04:49:15.609Z,5
2017-08-27T04:50:15.935Z,5
2017-08-27T04:51:16.239Z,10
2017-08-27T04:52:16.238Z,10
2017-08-27T04:53:15.601Z,10
2017-08-27T04:54:15.914Z,10
2017-08-27T04:55:15.910Z,10
2017-08-27T04:56:15.909Z,10
2017-08-27T04:57:15.906Z,15
2017-08-27T04:58:15.588Z,15
2017-08-27T04:59:16.533Z,15
2017-08-27T05:00:15.894Z,15
2017-08-27T05:01:15.896Z,15
2017-08-27T05:02:15.889Z,20
2017-08-27T05:03:15.993Z,20
2017-08-27T05:04:15.579Z,20
2017-08-27T05:05:15.669Z,20
2017-08-27T05:06:15.880Z,25
2017-08-27T05:07:15.881Z,25
2017-08-27T05:08:15.568Z,25
2017-08-27T05:09:16.189Z,25
2017-08-27T05:10:15.872Z,30
2017-08-27T05:11:16.176Z,30
2017-08-27T05:12:16.493Z,30
2017-08-27T05:13:16.190Z,30
2017-08-27T05:14:15.547Z,30
2017-08-27T05:15:15.542Z,30
2017-08-27T05:16:16.168Z,30
2017-08-27T05:17:15.859Z,30
2017-08-27T05:18:15.539Z,30
2017-08-27T05:19:16.475Z,35
2017-08-27T05:20:16.158Z,35
2017-08-27T05:21:15.525Z,35
2017-08-27T05:22:16.148Z,35
2017-08-27T05:23:15.849Z,35
2017-08-27T05:24:15.834Z,35
2017-08-27T05:25:15.834Z,40
2017-08-27T05:26:16.464Z,40
2017-08-27T05:27:15.928Z,40
2017-08-27T05:28:15.923Z,45
2017-08-27T05:29:15.509Z,50
2017-08-27T05:30:16.129Z,50
2017-08-27T05:31:15.506Z,45
2017-08-27T05:32:15.817Z,50
2017-08-27T05:33:15.833Z,55
2017-08-27T05:34:15.909Z,60
2017-08-27T05:35:15.806Z,60
2017-08-27T05:36:15.932Z,60
2017-08-27T05:37:16.114Z,65
2017-08-27T05:38:15.797Z,70
2017-08-27T05:39:15.485Z,65
2017-08-27T05:40:16.105Z,70
2017-08-27T05:41:15.487Z,75
2017-08-27T05:42:16.415Z,75
2017-08-27T05:43:15.576Z,80
2017-08-27T05:44:16.409Z,85
2017-08-27T05:45:16.097Z,85
2017-08-27T05:46:15.774Z,90
2017-08-27T05:47:15.461Z,100
2017-08-27T05:48:16.188Z,100
2017-08-27T05:49:16.399Z,110
2017-08-27T05:50:15.873Z,110
2017-08-27T05:51:15.767Z,115
2017-08-27T05:52:15.866Z,115
2017-08-27T05:53:16.076Z,115
2017-08-27T05:54:16.077Z,120
2017-08-27T05:55:16.391Z,120
2017-08-27T05:56:16.493Z,115
2017-08-27T05:57:15.865Z,130
2017-08-27T05:58:15.853Z,130
2017-08-27T05:59:16.062Z,125
2017-08-27T06:00:15.424Z,135
2017-08-27T06:01:15.739Z,125
2017-08-27T06:02:16.042Z,135
2017-08-27T06:03:15.738Z,140
2017-08-27T06:04:15.829Z,140
2017-08-27T06:05:16.050Z,140
2017-08-27T06:06:16.043Z,145
2017-08-27T06:07:16.038Z,145
2017-08-27T06:08:15.724Z,145
2017-08-27T06:09:15.722Z,155
2017-08-27T06:10:15.722Z,125
2017-08-27T06:11:16.037Z,140
2017-08-27T06:12:16.038Z,115
2017-08-27T06:13:15.716Z,170
2017-08-27T06:14:16.027Z,185
2017-08-27T06:15:15.407Z,195
2017-08-27T06:16:16.026Z,200
2017-08-27T06:17:15.715Z,175
2017-08-27T06:18:16.532Z,170
2017-08-27T06:19:16.017Z,205
2017-08-27T06:20:16.020Z,200
2017-08-27T06:21:15.705Z,200
2017-08-27T06:22:16.349Z,195
2017-08-27T06:23:16.325Z,190
2017-08-27T06:24:16.021Z,170
2017-08-27T06:25:15.697Z,135
2017-08-27T06:26:15.697Z,90
2017-08-27T06:27:15.698Z,65
2017-08-27T06:28:16.011Z,60
2017-08-27T06:29:16.010Z,60
2017-08-27T06:30:16.014Z,65
2017-08-27T06:31:15.478Z,60
2017-08-27T06:32:15.382Z,65
2017-08-27T06:33:15.699Z,70
2017-08-27T06:34:15.699Z,70
2017-08-27T06:35:15.692Z,75
2017-08-27T06:36:15.378Z,85
2017-08-27T06:37:16.001Z,100
2017-08-27T06:38:15.685Z,135
2017-08-27T06:39:16.317Z,175
2017-08-27T06:40:15.372Z,195
2017-08-27T06:41:15.709Z,200
2017-08-27T06:42:16.009Z,215
2017-08-27T06:43:15.999Z,245
2017-08-27T06:44:15.684Z,250
2017-08-27T06:45:15.777Z,250
2017-08-27T06:46:15.995Z,225
2017-08-27T06:47:16.312Z,250
2017-08-27T06:48:16.026Z,260
2017-08-27T06:49:15.461Z,225
2017-08-27T06:50:15.359Z,205
2017-08-27T06:51:15.046Z,200
2017-08-27T06:52:15.992Z,175
2017-08-27T06:53:15.996Z,180
2017-08-27T06:54:15.356Z,185
2017-08-27T06:55:15.354Z,175
2017-08-27T06:56:15.686Z,170
2017-08-27T06:57:15.974Z,170
2017-08-27T06:58:15.663Z,175
2017-08-27T06:59:16.025Z,175
2017-08-27T07:00:15.981Z,180
2017-08-27T07:01:15.349Z,200
2017-08-27T07:02:15.353Z,200
2017-08-27T07:03:15.663Z,180
2017-08-27T07:04:15.757Z,190
2017-08-27T07:05:15.982Z,170
2017-08-27T07:06:15.353Z,180
2017-08-27T07:07:15.652Z,165
2017-08-27T07:08:15.967Z,125
2017-08-27T07:09:15.968Z,115
2017-08-27T07:10:15.654Z,90
2017-08-27T07:11:15.970Z,70
2017-08-27T07:12:15.972Z,60
2017-08-27T07:13:15.967Z,50
2017-08-27T07:14:15.337Z,45
2017-08-27T07:15:15.645Z,40
2017-08-27T07:16:15.962Z,35
2017-08-27T07:17:15.956Z,30
2017-08-27T07:18:16.281Z,30
2017-08-27T07:19:15.955Z,30
2017-08-27T07:20:15.958Z,35
2017-08-27T07:21:15.957Z,45
2017-08-27T07:22:15.954Z,50
2017-08-27T07:23:15.430Z,55
2017-08-27T07:24:15.644Z,50
2017-08-27T07:25:15.428Z,75
2017-08-27T07:26:15.643Z,40
2017-08-27T07:27:15.953Z,30
2017-08-27T07:28:15.640Z,30
2017-08-27T07:29:15.948Z,30
2017-08-27T07:30:16.271Z,30
2017-08-27T07:31:15.629Z,30
2017-08-27T07:32:15.729Z,30
2017-08-27T07:33:15.731Z,35
2017-08-27T07:34:15.633Z,35
2017-08-27T07:35:15.948Z,35
2017-08-27T07:36:15.940Z,35
2017-08-27T07:37:15.722Z,40
2017-08-27T07:38:15.935Z,45
2017-08-27T07:39:15.623Z,55
2017-08-27T07:40:16.039Z,60
2017-08-27T07:41:14.997Z,60
2017-08-27T07:42:15.620Z,60
2017-08-27T07:43:15.929Z,60
2017-08-27T07:44:15.719Z,60
2017-08-27T07:45:15.402Z,70
2017-08-27T07:46:15.708Z,80
2017-08-27T07:47:15.608Z,90
2017-08-27T07:48:15.915Z,110
2017-08-27T07:49:16.235Z,110
2017-08-27T07:50:16.228Z,115
2017-08-27T07:51:15.608Z,110
2017-08-27T07:52:15.645Z,105
2017-08-27T07:53:15.700Z,105
2017-08-27T07:54:15.600Z,100
2017-08-27T07:55:16.223Z,100
2017-08-27T07:56:16.225Z,105
2017-08-27T07:57:15.277Z,105
2017-08-27T07:58:15.280Z,110
2017-08-27T07:59:15.592Z,115
2017-08-27T08:00:15.589Z,120
2017-08-27T08:01:16.223Z,125
2017-08-27T08:02:15.586Z,125
2017-08-27T08:03:15.683Z,125
2017-08-27T08:04:15.583Z,125
2017-08-27T08:05:14.954Z,125
2017-08-27T08:06:16.206Z,120
2017-08-27T08:07:16.303Z,115
2017-08-27T08:08:15.888Z,110
2017-08-27T08:09:15.889Z,105
2017-08-27T08:10:15.881Z,105
2017-08-27T08:11:16.201Z,105
2017-08-27T08:12:15.884Z,105
2017-08-27T08:13:15.976Z,105
2017-08-27T08:14:15.882Z,100
2017-08-27T08:15:15.567Z,95
2017-08-27T08:16:15.568Z,90
2017-08-27T08:17:15.561Z,90
2017-08-27T08:18:15.247Z,85
2017-08-27T08:19:15.557Z,90
2017-08-27T08:20:15.247Z,95
2017-08-27T08:21:16.183Z,100
2017-08-27T08:22:15.244Z,110
2017-08-27T08:23:15.248Z,110
2017-08-27T08:24:15.652Z,110
2017-08-27T08:25:15.340Z,105
2017-08-27T08:26:15.881Z,100
2017-08-27T08:27:15.554Z,105
2017-08-27T08:28:15.650Z,105
2017-08-27T08:29:15.857Z,100
2017-08-27T08:30:15.861Z,90
2017-08-27T08:31:15.856Z,85
2017-08-27T08:32:15.541Z,75
2017-08-27T08:33:15.954Z,75
2017-08-27T08:34:15.229Z,75
2017-08-27T08:35:15.328Z,80
2017-08-27T08:36:14.915Z,85
2017-08-27T08:37:15.326Z,85
2017-08-27T08:38:14.909Z,90
2017-08-27T08:39:15.224Z,90
2017-08-27T08:40:15.947Z,100
2017-08-27T08:41:16.182Z,110
2017-08-27T08:42:15.845Z,105
2017-08-27T08:43:15.316Z,105
2017-08-27T08:44:15.528Z,100
2017-08-27T08:45:16.157Z,95
2017-08-27T08:46:15.527Z,95
2017-08-27T08:47:15.834Z,95
2017-08-27T08:48:15.522Z,90
2017-08-27T08:49:15.828Z,90
2017-08-27T08:50:15.308Z,95
2017-08-27T08:51:16.258Z,95
2017-08-27T08:52:15.829Z,100
2017-08-27T08:53:15.516Z,105
2017-08-27T08:54:15.825Z,110
2017-08-27T08:55:15.510Z,115
2017-08-27T08:56:15.513Z,115
2017-08-27T08:57:16.242Z,110
2017-08-27T08:58:15.504Z,105
2017-08-27T08:59:15.504Z,100
2017-08-27T09:00:15.188Z,95
2017-08-27T09:01:16.160Z,90
2017-08-27T09:02:15.818Z,90
2017-08-27T09:03:16.128Z,90
2017-08-27T09:04:15.812Z,90
2017-08-27T09:05:15.804Z,90
2017-08-27T09:06:15.500Z,90
2017-08-27T09:07:15.498Z,95
2017-08-27T09:08:15.176Z,95
2017-08-27T09:09:15.187Z,95
2017-08-27T09:10:15.806Z,95
2017-08-27T09:11:15.803Z,90
2017-08-27T09:12:15.495Z,90
2017-08-27T09:13:15.275Z,80
2017-08-27T09:14:15.488Z,85
2017-08-27T09:15:15.172Z,80
2017-08-27T09:16:15.889Z,85
2017-08-27T09:17:15.787Z,90
2017-08-27T09:18:15.478Z,95
2017-08-27T09:19:15.501Z,90
2017-08-27T09:20:15.160Z,95
2017-08-27T09:21:15.788Z,95
2017-08-27T09:22:15.797Z,90
2017-08-27T09:23:15.818Z,100
2017-08-27T09:24:16.096Z,100
2017-08-27T09:25:15.567Z,95
2017-08-27T09:26:16.100Z,90
2017-08-27T09:27:15.568Z,85
2017-08-27T09:28:15.463Z,85
2017-08-27T09:29:15.465Z,80
2017-08-27T09:30:15.463Z,80
2017-08-27T09:31:15.773Z,80
2017-08-27T09:32:15.461Z,80
2017-08-27T09:33:15.458Z,80
2017-08-27T09:34:15.770Z,80
2017-08-27T09:35:15.770Z,80
2017-08-27T09:36:15.239Z,80
2017-08-27T09:37:16.077Z,80
2017-08-27T09:38:15.459Z,80
2017-08-27T09:39:15.766Z,80
2017-08-27T09:40:16.073Z,80
2017-08-27T09:41:15.805Z,80
2017-08-27T09:42:15.641Z,80
2017-08-27T09:43:15.761Z,75
2017-08-27T09:44:15.448Z,75
2017-08-27T09:45:15.778Z,75
2017-08-27T09:46:15.752Z,70
2017-08-27T09:47:15.857Z,75
2017-08-27T09:48:14.812Z,75
2017-08-27T09:49:16.055Z,75
2017-08-27T09:50:15.750Z,75
2017-08-27T09:51:16.061Z,75
2017-08-27T09:52:15.114Z,75
2017-08-27T09:53:15.430Z,75
2017-08-27T09:54:16.048Z,75
2017-08-27T09:55:15.454Z,75
2017-08-27T09:56:15.740Z,75
2017-08-27T09:57:15.739Z,70
2017-08-27T09:58:16.054Z,70
2017-08-27T09:59:15.436Z,70
2017-08-27T10:00:15.421Z,65
2017-08-27T10:01:14.796Z,70
2017-08-27T10:02:15.735Z,70
2017-08-27T10:03:15.732Z,70
2017-08-27T10:04:16.042Z,70
2017-08-27T10:05:15.729Z,65
2017-08-27T10:06:15.413Z,65
2017-08-27T10:07:15.198Z,65
2017-08-27T10:08:16.066Z,65
2017-08-27T10:09:15.410Z,65
2017-08-27T10:10:15.716Z,70
2017-08-27T10:11:15.408Z,70
2017-08-27T10:12:15.411Z,65
2017-08-27T10:13:15.088Z,65
2017-08-27T10:14:14.772Z,65
2017-08-27T10:15:16.026Z,65
2017-08-27T10:16:15.396Z,65
2017-08-27T10:17:16.127Z,65
2017-08-27T10:18:15.395Z,65
2017-08-27T10:19:15.705Z,65
2017-08-27T10:20:15.081Z,65
2017-08-27T10:21:15.387Z,65
2017-08-27T10:22:15.392Z,65
2017-08-27T10:23:15.393Z,65
2017-08-27T10:24:15.070Z,70
2017-08-27T10:25:16.011Z,80
2017-08-27T10:26:15.386Z,85
2017-08-27T10:27:15.691Z,90
2017-08-27T10:28:16.010Z,85
2017-08-27T10:29:15.692Z,80
2017-08-27T10:30:15.480Z,80
2017-08-27T10:31:15.374Z,80
2017-08-27T10:32:16.006Z,80
2017-08-27T10:33:15.057Z,80
2017-08-27T10:34:15.695Z,85
2017-08-27T10:35:15.678Z,80
2017-08-27T10:36:15.369Z,80
2017-08-27T10:37:15.991Z,80
2017-08-27T10:38:15.997Z,80
2017-08-27T10:39:15.991Z,75
2017-08-27T10:40:15.772Z,70
2017-08-27T10:41:15.365Z,75
2017-08-27T10:42:15.053Z,75
2017-08-27T10:43:15.985Z,70
2017-08-27T10:44:15.675Z,70
2017-08-27T10:45:15.362Z,70
2017-08-27T10:46:15.358Z,65
2017-08-27T10:47:15.672Z,65
2017-08-27T10:48:15.673Z,65
2017-08-27T10:49:15.371Z,65
2017-08-27T10:50:15.665Z,65
2017-08-27T10:51:15.982Z,70
2017-08-27T10:52:14.722Z,75
2017-08-27T10:53:15.345Z,70
2017-08-27T10:54:15.986Z,70
2017-08-27T10:55:15.658Z,70
2017-08-27T10:56:15.344Z,70
2017-08-27T10:57:15.761Z,75
2017-08-27T10:58:15.339Z,80
2017-08-27T10:59:15.026Z,80
2017-08-27T11:00:15.341Z,85
2017-08-27T11:01:15.654Z,80
2017-08-27T11:02:15.959Z,70
2017-08-27T11:03:15.646Z,65
2017-08-27T11:04:15.350Z,65
2017-08-27T11:05:15.334Z,65
2017-08-27T11:06:15.328Z,65
2017-08-27T11:07:15.015Z,65
2017-08-27T11:08:15.011Z,60
2017-08-27T11:09:15.429Z,60
2017-08-27T11:10:15.420Z,60
2017-08-27T11:11:15.318Z,60
2017-08-27T11:12:15.013Z,65
2017-08-27T11:13:15.636Z,70
2017-08-27T11:14:15.321Z,75
2017-08-27T11:15:16.046Z,75
2017-08-27T11:16:15.323Z,75
2017-08-27T11:17:15.313Z,70
2017-08-27T11:18:15.633Z,65
2017-08-27T11:19:15.327Z,70
2017-08-27T11:20:15.623Z,70
2017-08-27T11:21:15.317Z,60
2017-08-27T11:22:15.306Z,60
2017-08-27T11:23:14.992Z,60
2017-08-27T11:24:15.718Z,60
2017-08-27T11:25:15.715Z,60
2017-08-27T11:26:15.716Z,60
2017-08-27T11:27:15.298Z,60
2017-08-27T11:28:14.986Z,60
2017-08-27T11:29:15.399Z,60
2017-08-27T11:30:14.987Z,60
2017-08-27T11:31:14.983Z,60
2017-08-27T11:32:15.708Z,60
2017-08-27T11:33:14.980Z,60
2017-08-27T11:34:15.603Z,55
2017-08-27T11:35:15.287Z,55
2017-08-27T11:36:15.289Z,55
2017-08-27T11:37:15.074Z,55
2017-08-27T11:38:15.599Z,55
2017-08-27T11:39:15.287Z,55
2017-08-27T11:40:15.290Z,55
2017-08-27T11:41:14.988Z,55
2017-08-27T11:42:15.916Z,55
2017-08-27T11:43:15.277Z,55
2017-08-27T11:44:15.912Z,60
2017-08-27T11:45:15.377Z,60
2017-08-27T11:46:15.279Z,65
2017-08-27T11:47:16.218Z,65
2017-08-27T11:48:15.593Z,65
2017-08-27T11:49:15.275Z,65
2017-08-27T11:50:14.962Z,65
2017-08-27T11:51:15.894Z,65
2017-08-27T11:52:15.281Z,70
2017-08-27T11:53:15.266Z,70
2017-08-27T11:54:15.269Z,70
2017-08-27T11:55:14.951Z,75
2017-08-27T11:56:15.579Z,80
2017-08-27T11:57:15.673Z,80
2017-08-27T11:58:15.993Z,85
2017-08-27T11:59:14.737Z,90
2017-08-27T12:00:15.983Z,90
2017-08-27T12:01:15.260Z,85
2017-08-27T12:02:14.947Z,80
2017-08-27T12:03:15.575Z,75
2017-08-27T12:04:15.355Z,70
2017-08-27T12:05:15.668Z,60
2017-08-27T12:06:15.570Z,60
2017-08-27T12:07:15.876Z,60
2017-08-27T12:08:15.571Z,60
2017-08-27T12:09:15.037Z,60
2017-08-27T12:10:15.880Z,60
2017-08-27T12:11:15.567Z,60
2017-08-27T12:12:15.247Z,65
2017-08-27T12:13:15.243Z,65
2017-08-27T12:14:15.555Z,65
2017-08-27T12:15:15.555Z,65
2017-08-27T12:16:15.550Z,60
2017-08-27T12:17:15.553Z,60
2017-08-27T12:18:14.924Z,55
2017-08-27T12:19:15.336Z,50
2017-08-27T12:20:15.237Z,50
2017-08-27T12:21:15.545Z,50
2017-08-27T12:22:15.236Z,50
2017-08-27T12:23:15.548Z,50
2017-08-27T12:24:15.231Z,50
2017-08-27T12:25:15.567Z,45
2017-08-27T12:26:15.542Z,40
2017-08-27T12:27:15.849Z,35
2017-08-27T12:28:15.259Z,35
2017-08-27T12:29:15.224Z,30
2017-08-27T12:30:14.907Z,30
2017-08-27T12:31:15.218Z,30
2017-08-27T12:32:14.904Z,25
2017-08-27T12:33:14.903Z,25
2017-08-27T12:34:15.004Z,25
2017-08-27T12:35:15.533Z,25
2017-08-27T12:36:15.312Z,25
2017-08-27T12:37:15.845Z,25
2017-08-27T12:38:15.315Z,30
2017-08-27T12:39:15.527Z,25
2017-08-27T12:40:15.210Z,25
2017-08-27T12:41:15.553Z,25
2017-08-27T12:42:15.307Z,30
2017-08-27T12:43:15.522Z,30
2017-08-27T12:44:15.515Z,25
2017-08-27T12:45:15.832Z,30
2017-08-27T12:46:15.827Z,30
2017-08-27T12:47:15.518Z,30
2017-08-27T12:48:14.986Z,30
2017-08-27T12:49:15.506Z,35
2017-08-27T12:50:15.822Z,35
2017-08-27T12:51:15.192Z,40
2017-08-27T12:52:15.502Z,45
2017-08-27T12:53:15.293Z,55
2017-08-27T12:54:15.600Z,60
2017-08-27T12:55:14.870Z,60
2017-08-27T12:56:15.615Z,55
2017-08-27T12:57:14.873Z,55
2017-08-27T12:58:15.178Z,55
2017-08-27T12:59:15.181Z,55
2017-08-27T13:00:15.500Z,60
2017-08-27T13:01:15.593Z,65
2017-08-27T13:02:15.190Z,70
2017-08-27T13:03:14.864Z,70
2017-08-27T13:04:15.178Z,65
2017-08-27T13:05:14.858Z,65
2017-08-27T13:06:14.859Z,65
2017-08-27T13:07:14.858Z,65
2017-08-27T13:08:15.511Z,65
2017-08-27T13:09:14.889Z,75
2017-08-27T13:10:14.859Z,75
2017-08-27T13:11:15.786Z,80
2017-08-27T13:12:14.851Z,80
2017-08-27T13:13:15.478Z,75
2017-08-27T13:14:14.847Z,75
2017-08-27T13:15:15.577Z,70
2017-08-27T13:16:15.153Z,65
2017-08-27T13:17:15.470Z,65
2017-08-27T13:18:15.478Z,60
2017-08-27T13:19:15.154Z,55
2017-08-27T13:20:15.565Z,60
2017-08-27T13:21:15.470Z,60
2017-08-27T13:22:15.772Z,65
2017-08-27T13:23:15.462Z,70
2017-08-27T13:24:15.457Z,70
2017-08-27T13:25:15.772Z,70
2017-08-27T13:26:15.472Z,65
2017-08-27T13:27:15.456Z,60
2017-08-27T13:28:15.557Z,60
2017-08-27T13:29:15.160Z,60
2017-08-27T13:30:15.453Z,65
2017-08-27T13:31:15.767Z,65
2017-08-27T13:32:15.136Z,65
2017-08-27T13:33:15.147Z,65
2017-08-27T13:34:15.452Z,65
2017-08-27T13:35:15.445Z,65
2017-08-27T13:36:15.445Z,65
2017-08-27T13:37:15.448Z,60
2017-08-27T13:38:15.133Z,55
2017-08-27T13:39:15.439Z,55
2017-08-27T13:40:15.752Z,55
2017-08-27T13:41:14.847Z,55
2017-08-27T13:42:14.808Z,50
2017-08-27T13:43:15.439Z,50
2017-08-27T13:44:15.129Z,50
2017-08-27T13:45:15.439Z,50
2017-08-27T13:46:15.127Z,50
2017-08-27T13:47:15.117Z,50
2017-08-27T13:48:15.119Z,45
2017-08-27T13:49:15.120Z,50
2017-08-27T13:50:15.436Z,50
2017-08-27T13:51:14.899Z,55
2017-08-27T13:52:14.487Z,55
2017-08-27T13:53:15.114Z,50
2017-08-27T13:54:14.795Z,50
2017-08-27T13:55:15.109Z,50
2017-08-27T13:56:15.520Z,50
2017-08-27T13:57:15.525Z,45
2017-08-27T13:58:15.520Z,45
2017-08-27T13:59:15.102Z,45
2017-08-27T14:00:14.475Z,45
2017-08-27T14:01:15.412Z,45
2017-08-27T14:02:15.226Z,45
2017-08-27T14:03:15.099Z,45
2017-08-27T14:04:15.097Z,45
2017-08-27T14:05:15.411Z,45
2017-08-27T14:06:15.410Z,45
2017-08-27T14:07:15.411Z,40
2017-08-27T14:08:15.095Z,45
2017-08-27T14:09:15.187Z,45
2017-08-27T14:10:15.191Z,45
2017-08-27T14:11:15.404Z,40
2017-08-27T14:12:15.186Z,45
2017-08-27T14:13:15.713Z,45
2017-08-27T14:14:15.083Z,45
2017-08-27T14:15:15.083Z,45
2017-08-27T14:16:15.082Z,45
2017-08-27T14:17:14.968Z,45
2017-08-27T14:18:15.398Z,45
2017-08-27T14:19:15.407Z,45
2017-08-27T14:20:15.386Z,45
2017-08-27T14:21:15.074Z,45